• Join FlightAware (Why Join?)
  • Login
  • US Flag 
04:57PM EDT


 

Airport Tracker/Info


-or-


 

Live Flight TrackerFlight Track Log ✈ VH-OZH ✈ 18-May-2013 ✈ YHBA / HVB - YBCG / OOL

Flight Track Log - Related Links

Times and Time Zones

All times are in EDT time to prevent confusion due to time zone crossing. See the VH-OZH flight status page for this flight to view local times or setup timezone preferences in your user account.

Time Position Orientation Groundspeed Altitude Reporting Facility
EDT Latitude Longitude Course Direction KTS MPH feet Rate Location/Type
01:26AM -25.8271 153.0933 165° South 171 197 8,600  Level Aus ATC (RADAR)
01:27AM -25.8536 153.1011 165° South 168 193 8,300 -480 Descending Aus ATC (RADAR)
01:27AM -25.8804 153.1106 162° South 173 199 8,100 -480 Descending Aus ATC (RADAR)
01:28AM -25.9033 153.1179 164° South 171 197 7,800 -600 Descending Aus ATC (RADAR)
01:28AM -25.9300 153.1267 163° South 171 197 7,500 -240 Descending Aus ATC (RADAR)
01:29AM -25.9629 153.1363 165° South 164 189 7,500  Level Aus ATC (RADAR)
01:30AM -25.9876 153.1423 168° South 157 181 7,500  Level Aus ATC (RADAR)
01:30AM -26.0129 153.1423 180° South 156 180 7,500  Level Aus ATC (RADAR)
01:31AM -26.0379 153.1476 169° South 157 181 7,500  Level Aus ATC (RADAR)
01:31AM -26.0591 153.1511 172° South 155 178 7,500  Level Aus ATC (RADAR)
01:32AM -26.0840 153.1557 171° South 155 178 7,500  Level Aus ATC (RADAR)
01:32AM -26.1089 153.1615 168° South 155 178 7,500  Level Aus ATC (RADAR)
01:33AM -26.1336 153.1656 172° South 155 178 7,500  Level Aus ATC (RADAR)
01:34AM -26.1593 153.1696 172° South 160 184 7,500  Level Aus ATC (RADAR)
01:35AM -26.1994 153.1772 170° South 160 184 7,500  Level Aus ATC (RADAR)
01:35AM -26.2175 153.1808 170° South 159 183 7,500  Level Aus ATC (RADAR)
01:36AM -26.2429 153.1863 169° South 159 183 7,500  Level Aus ATC (RADAR)
01:36AM -26.2753 153.1933 169° South 157 181 7,500  Level Aus ATC (RADAR)
01:37AM -26.3008 153.1985 170° South 159 183 7,500  Level Aus ATC (RADAR)
01:37AM -26.3259 153.2021 173° South 156 180 7,500  Level Aus ATC (RADAR)
01:38AM -26.3513 153.2062 172° South 157 181 7,500  Level Aus ATC (RADAR)
01:39AM -26.3762 153.2121 168° South 155 178 7,500  Level Aus ATC (RADAR)
01:40AM -26.4254 153.2220 170° South 156 180 7,500  Level Aus ATC (RADAR)
01:40AM -26.4430 153.2265 167° South 156 180 7,500  Level Aus ATC (RADAR)
01:41AM -26.4676 153.2296 174° South 152 175 7,500  Level Aus ATC (RADAR)
01:41AM -26.4950 153.2374 166° South 153 176 7,500  Level Aus ATC (RADAR)
01:42AM -26.5204 153.2421 170° South 158 182 7,500  Level Aus ATC (RADAR)
01:43AM -26.5453 153.2457 173° South 156 180 7,500  Level Aus ATC (RADAR)
01:43AM -26.5712 153.2504 171° South 161 185 7,500  Level Aus ATC (RADAR)
01:44AM -26.5963 153.2555 170° South 157 181 7,500  Level Aus ATC (RADAR)
01:45AM -26.6360 153.2649 168° South 159 183 7,500  Level Aus ATC (RADAR)
01:45AM -26.6539 153.2672 173° South 157 181 7,500  Level Aus ATC (RADAR)
01:46AM -26.6776 153.2734 167° South 150 173 7,500  Level Aus ATC (RADAR)
01:46AM -26.7059 153.2772 173° South 152 175 7,500  Level Aus ATC (RADAR)
01:47AM -26.7306 153.2821 170° South 154 177 7,500  Level Aus ATC (RADAR)
01:48AM -26.7545 153.2869 170° South 149 171 7,500  Level Aus ATC (RADAR)
01:48AM -26.7780 153.2937 166° South 149 171 7,500  Level Aus ATC (RADAR)
01:49AM -26.8014 153.2969 173° South 144 166 7,500  Level Aus ATC (RADAR)
01:49AM -26.8312 153.3037 168° South 147 169 7,500  Level Aus ATC (RADAR)
01:50AM -26.8550 153.3072 173° South 146 168 7,500  Level Aus ATC (RADAR)
01:51AM -26.8764 153.3115 170° South 134 154 7,500  Level Aus ATC (RADAR)
01:51AM -26.9047 153.3170 170° South 136 157 7,500  Level Aus ATC (RADAR)
01:52AM -26.9207 153.3195 172° South 139 160 7,500  Level Aus ATC (RADAR)
01:52AM -26.9431 153.3248 168° South 140 161 7,500  Level Aus ATC (RADAR)
01:53AM -26.9699 153.3304 169° South 145 167 7,500  Level Aus ATC (RADAR)
01:54AM -26.9935 153.3346 171° South 148 170 7,500  Level Aus ATC (RADAR)
01:54AM -27.0164 153.3383 172° South 143 165 7,500  Level Aus ATC (RADAR)
01:55AM -27.0487 153.3454 169° South 142 163 7,500  Level Aus ATC (RADAR)
01:55AM -27.0656 153.3477 173° South 144 166 7,500  Level Aus ATC (RADAR)
01:56AM -27.0856 153.3526 168° South 147 169 7,500  Level Aus ATC (RADAR)
01:57AM -27.1153 153.3571 172° South 141 162 7,500  Level Aus ATC (RADAR)
01:57AM -27.1383 153.3616 170° South 144 166 7,500  Level Aus ATC (RADAR)
01:58AM -27.1617 153.3646 174° South 146 168 7,500  Level Aus ATC (RADAR)
01:58AM -27.1822 153.3662 176° South 147 169 7,500  Level Aus ATC (RADAR)
01:59AM -27.2058 153.3707 170° South 146 168 7,500  Level Aus ATC (RADAR)
02:00AM -27.2391 153.3739 175° South 147 169 7,500 -180 Level Aus ATC (RADAR)
02:00AM -27.2569 153.3768 172° South 152 175 7,300 -480 Descending Aus ATC (RADAR)
02:01AM -27.2758 153.3798 172° South 161 185 7,100 -540 Descending Aus ATC (RADAR)
02:01AM -27.3031 153.3820 176° South 167 192 6,800 -540 Descending Aus ATC (RADAR)
02:02AM -27.3373 153.3870 173° South 165 190 6,400 -660 Descending Aus ATC (RADAR)
02:02AM -27.3641 153.3914 172° South 166 191 6,000 -480 Descending Aus ATC (RADAR)
02:03AM -27.3902 153.3937 176° South 161 185 5,900 -300 Descending Aus ATC (RADAR)
02:04AM -27.4083 153.3968 171° South 158 182 5,700 -420 Descending Aus ATC (RADAR)
02:04AM -27.4374 153.4012 172° South 157 181 5,500 -540 Descending Aus ATC (RADAR)
02:05AM -27.4861 153.4079 173° South 167 192 4,800 -660 Descending Aus ATC (RADAR)
02:06AM -27.5019 153.4100 173° South 170 196 4,600 -780 Descending Aus ATC (RADAR)
02:06AM -27.5298 153.4128 175° South 172 198 4,100 -780 Descending Aus ATC (RADAR)
02:07AM -27.5643 153.4187 171° South 166 191 3,600 -600 Descending Aus ATC (RADAR)
02:07AM -27.5912 153.4214 175° South 165 190 3,300 -540 Descending Aus ATC (RADAR)
02:08AM -27.6177 153.4260 171° South 163 188 3,000 -600 Descending Aus ATC (RADAR)
02:09AM -27.6405 153.4286 174° South 164 189 2,700 -600 Descending Aus ATC (RADAR)
02:09AM -27.6668 153.4319 174° South 162 186 2,400 -600 Descending Aus ATC (RADAR)
02:10AM -27.7044 153.4383 172° South 163 188 1,900 -600 Descending Aus ATC (RADAR)
02:10AM -27.7228 153.4401 175° South 161 185 1,700 -600 Descending Aus ATC (RADAR)
02:11AM -27.7415 153.4430 172° South 161 185 1,400 -420 Descending Aus ATC (RADAR)
02:11AM -27.7674 153.4459 174° South 159 183 1,300 -120 Descending Aus ATC (RADAR)
02:12AM -27.7955 153.4426 186° South 153 176 1,300  Level Aus ATC (RADAR)
02:13AM -27.8190 153.4399 186° South 146 168 1,300 -120 Level Aus ATC (RADAR)
02:13AM -27.8459 153.4372 185° South 146 168 1,200  Descending Aus ATC (RADAR)
02:14AM -27.8662 153.4369 181° South 145 167 1,300  Climbing Aus ATC (RADAR)
02:14AM -27.8899 153.4364 181° South 146 168 1,200 -180 Descending Aus ATC (RADAR)
02:15AM -27.9279 153.4327 185° South 150 173 1,100 -240 Descending Aus ATC (RADAR)
02:16AM -27.9458 153.4331 179° South 153 176 900 -540 Descending Aus ATC (RADAR)
02:16AM -27.9709 153.4332 180° South 155 178 600 -240 Descending Aus ATC (RADAR)
02:17AM -28.0024 153.4357 176° South 151 174 600  Level Aus ATC (RADAR)
02:18AM -28.0268 153.4406 170° South 153 176 600 -120 Level Aus ATC (RADAR)
02:19AM -28.0756 153.4498 171° South 154 177 400 180 Descending Aus ATC (RADAR)
02:19AM -28.0949 153.4559 164° South 145 167 900 300 Climbing Aus ATC (RADAR)
02:20AM -28.1230 153.4699 156° South 139 160 800 -180 Descending Aus ATC (RADAR)
02:21AM -28.1359 153.4819 141° Southeast 141 162 700 -480 Descending Aus ATC (RADAR)
02:21AM -28.1475 153.4962 133° Southeast 123 142 400 -600 Descending Aus ATC (RADAR)